Time;durP1;ratioP1;P1;durP2;ratioP2;P2;SDS_P1;SDS_P2;PMS_P1;PMS_P2;Temp;Humidity;BMP_temperature;BMP_pressure;BME280_temperature;BME280_humidity;BME280_pressure;Samples;Min_cycle;Max_cycle;Signal;HPM_P1;HPM_P2
2022/12/11 00:00:14;;;;;;;57.72;28.02;;;;;;;1.00;100.00;100990.84;5048690;28;20446;-73
2022/12/11 00:02:40;;;;;;;53.03;24.27;;;;;;;1.00;100.00;100988.19;5048949;28;20543;-73
2022/12/11 00:05:05;;;;;;;49.15;25.42;;;;;;;1.01;100.00;100996.09;5033367;28;20108;-72
2022/12/11 00:07:30;;;;;;;54.97;27.45;;;;;;;0.99;100.00;100995.25;5026200;28;20058;-72
2022/12/11 00:09:56;;;;;;;49.20;26.13;;;;;;;0.99;100.00;100992.59;5045185;28;20478;-72
2022/12/11 00:12:21;;;;;;;55.63;26.42;;;;;;;0.98;100.00;100990.00;5051261;28;20021;-73
2022/12/11 00:14:46;;;;;;;54.80;27.05;;;;;;;0.96;100.00;100982.09;5051120;28;20029;-72
2022/12/11 00:17:12;;;;;;;50.10;28.63;;;;;;;0.99;100.00;100989.09;5032946;28;20029;-73
2022/12/11 00:19:37;;;;;;;51.50;26.35;;;;;;;1.00;100.00;100981.09;5051189;28;20197;-72
2022/12/11 00:22:02;;;;;;;55.92;27.65;;;;;;;1.01;100.00;100980.19;5051536;28;20033;-72
2022/12/11 00:24:27;;;;;;;49.55;25.42;;;;;;;1.02;100.00;100981.06;5051280;28;20067;-72
2022/12/11 00:26:53;;;;;;;55.17;27.83;;;;;;;1.01;100.00;100980.19;5050406;28;20036;-72
2022/12/11 00:29:18;;;;;;;55.63;28.20;;;;;;;1.02;100.00;100987.22;5029023;28;20042;-72
2022/12/11 00:31:43;;;;;;;54.78;27.88;;;;;;;1.00;100.00;100983.75;5030442;28;20083;-72
2022/12/11 00:34:10;;;;;;;49.35;27.25;;;;;;;1.03;100.00;100988.94;5031501;28;20115;-72
2022/12/11 00:36:37;;;;;;;48.42;25.38;;;;;;;1.01;100.00;100988.13;5027291;28;20108;-72
2022/12/11 00:39:04;;;;;;;57.70;26.40;;;;;;;1.00;100.00;100982.91;5031046;28;20022;-72
2022/12/11 00:41:30;;;;;;;50.15;25.40;;;;;;;1.03;100.00;100983.66;5032501;28;20048;-72
2022/12/11 00:43:55;;;;;;;47.53;23.48;;;;;;;1.04;100.00;100985.41;5031476;28;20036;-72
2022/12/11 00:46:21;;;;;;;50.35;24.90;;;;;;;1.04;100.00;100988.03;5032236;28;20021;-72
2022/12/11 00:48:48;;;;;;;54.03;23.20;;;;;;;1.04;100.00;100982.75;5028637;28;20029;-72
2022/12/11 00:51:14;;;;;;;47.33;24.30;;;;;;;1.04;100.00;100980.09;5032093;28;20087;-72
2022/12/11 00:53:39;;;;;;;50.00;24.77;;;;;;;1.06;100.00;100979.19;5032322;28;20017;-72
2022/12/11 00:56:13;;;;;;;50.58;25.42;;;;;;;1.04;100.00;100974.81;5032265;28;20104;-72
2022/12/11 00:58:39;;;;;;;45.40;24.33;;;;;;;1.06;100.00;100971.25;5029536;28;20499;-73
2022/12/11 01:01:18;;;;;;;48.00;24.08;;;;;;;1.08;100.00;100980.00;5030918;28;20026;-73
2022/12/11 01:03:43;;;;;;;48.15;22.30;;;;;;;1.08;100.00;100974.72;5023304;28;20037;-72
2022/12/11 01:06:13;;;;;;;44.60;21.92;;;;;;;1.10;100.00;100984.34;5031054;28;20155;-72
2022/12/11 01:08:38;;;;;;;43.30;22.77;;;;;;;1.10;100.00;100975.50;5030807;28;20116;-72
2022/12/11 01:11:09;;;;;;;44.17;21.35;;;;;;;1.10;100.00;100978.16;5030735;28;20112;-72
2022/12/11 01:13:35;;;;;;;43.65;23.30;;;;;;;1.10;100.00;100978.16;5029857;28;20028;-72
2022/12/11 01:16:06;;;;;;;45.80;22.88;;;;;;;1.11;100.00;100979.91;5026164;28;20469;-72
2022/12/11 01:18:32;;;;;;;50.40;26.15;;;;;;;1.09;100.00;100977.31;5030167;28;20034;-72
2022/12/11 01:20:57;;;;;;;45.65;23.48;;;;;;;1.11;100.00;100975.47;5030997;28;20430;-72
2022/12/11 01:23:22;;;;;;;41.85;22.88;;;;;;;1.12;100.00;100986.94;5034178;28;20490;-72
2022/12/11 01:25:48;;;;;;;47.00;23.67;;;;;;;1.11;100.00;100986.06;5034260;28;20026;-73
2022/12/11 01:28:13;;;;;;;47.83;24.10;;;;;;;1.11;100.00;100982.53;5037436;28;20080;-72
2022/12/11 01:30:42;;;;;;;43.45;21.30;;;;;;;1.11;100.00;100986.06;5054207;28;20032;-72
2022/12/11 01:33:07;;;;;;;52.88;23.25;;;;;;;1.13;100.00;100988.66;5052946;28;20033;-72
2022/12/11 01:35:33;;;;;;;43.72;23.23;;;;;;;1.12;100.00;100984.28;5053081;28;20056;-73
2022/12/11 01:37:58;;;;;;;40.47;20.20;;;;;;;1.14;100.00;100985.09;5052449;28;20411;-72
2022/12/11 01:40:23;;;;;;;53.67;21.63;;;;;;;1.15;100.00;100987.69;5052772;28;20040;-72
2022/12/11 01:42:49;;;;;;;44.50;23.55;;;;;;;1.15;100.00;100979.75;5055403;28;20104;-72
2022/12/11 01:45:20;;;;;;;39.45;19.92;;;;;;;1.16;100.00;100978.00;5055549;28;20025;-72
2022/12/11 01:47:47;;;;;;;37.53;19.90;;;;;;;1.14;100.00;100975.41;5051323;28;20029;-73
2022/12/11 01:50:12;;;;;;;38.38;19.15;;;;;;;1.15;100.00;100970.94;5052729;28;20051;-72
2022/12/11 01:52:38;;;;;;;43.10;21.90;;;;;;;1.13;100.00;100978.94;5053458;28;20029;-72
2022/12/11 01:55:05;;;;;;;41.30;18.40;;;;;;;1.14;100.00;100979.81;5053746;28;20036;-73
2022/12/11 01:57:31;;;;;;;35.65;19.88;;;;;;;1.15;100.00;100971.81;5052912;28;20028;-72
2022/12/11 01:59:56;;;;;;;42.35;21.42;;;;;;;1.17;100.00;100963.81;5052960;28;20020;-72
2022/12/11 02:02:28;;;;;;;43.83;19.88;;;;;;;1.18;100.00;100960.25;5051362;28;20400;-72
2022/12/11 02:04:54;;;;;;;36.47;19.65;;;;;;;1.17;100.00;100963.81;5054118;28;20064;-72
2022/12/11 02:07:20;;;;;;;39.70;20.23;;;;;;;1.16;100.00;100957.66;5054384;28;20063;-72
2022/12/11 02:09:46;;;;;;;40.60;20.15;;;;;;;1.15;100.00;100976.25;5053990;28;20458;-73
2022/12/11 02:12:14;;;;;;;35.72;18.90;;;;;;;1.16;100.00;100962.09;5053632;28;20591;-72
2022/12/11 02:14:55;;;;;;;43.75;21.40;;;;;;;1.18;100.00;100962.91;5053504;28;20029;-72
2022/12/11 02:17:42;;;;;;;39.75;19.67;;;;;;;1.16;100.00;100959.47;5053786;28;20171;-73
2022/12/11 02:20:20;;;;;;;40.97;20.83;;;;;;;1.18;100.00;100965.56;5053676;28;20033;-73
2022/12/11 02:23:19;;;;;;;39.03;20.42;;;;;;;1.16;100.00;100960.31;5045849;28;20029;-73
2022/12/11 02:26:15;;;;;;;38.67;18.20;;;;;;;1.18;100.00;100962.91;5054611;28;20496;-73
2022/12/11 02:28:56;;;;;;;37.42;19.02;;;;;;;1.19;100.00;100957.56;5051754;28;20053;-73
2022/12/11 02:31:24;;;;;;;37.83;19.15;;;;;;;1.18;100.00;100960.25;5053542;28;20125;-73
2022/12/11 02:34:24;;;;;;;38.50;20.35;;;;;;;1.21;100.00;100955.72;5036026;28;20016;-72
2022/12/11 02:36:53;;;;;;;38.00;17.88;;;;;;;1.19;100.00;100954.06;5042478;28;20083;-72
2022/12/11 02:39:21;;;;;;;38.85;19.67;;;;;;;1.20;100.00;100953.13;5050695;28;20469;-73
2022/12/11 02:41:49;;;;;;;36.40;18.88;;;;;;;1.21;100.00;100962.81;5052722;28;20362;-72
2022/12/11 02:44:19;;;;;;;35.63;17.40;;;;;;;1.20;100.00;100964.59;5051444;28;20708;-73
2022/12/11 02:46:44;;;;;;;37.40;17.88;;;;;;;1.20;100.00;100956.66;5052371;28;20029;-72
2022/12/11 02:49:12;;;;;;;36.92;18.48;;;;;;;1.19;100.00;100952.25;5052741;28;20028;-73
2022/12/11 02:51:40;;;;;;;36.13;16.98;;;;;;;1.20;100.00;100958.41;5054039;28;20028;-72
2022/12/11 02:54:15;;;;;;;39.90;17.83;;;;;;;1.21;99.69;100960.16;5053178;28;20365;-73
2022/12/11 02:56:55;;;;;;;37.13;18.33;;;;;;;1.21;100.00;100960.16;5050973;28;20029;-73
2022/12/11 02:59:28;;;;;;;34.92;18.25;;;;;;;1.19;99.58;100959.34;5050676;28;20029;-72
2022/12/11 03:01:53;;;;;;;39.70;17.25;;;;;;;1.22;99.63;100959.25;5052402;28;20498;-73
2022/12/11 03:04:23;;;;;;;31.65;16.38;;;;;;;1.21;99.04;100953.06;5052675;28;20067;-73
2022/12/11 03:06:53;;;;;;;30.77;15.77;;;;;;;1.22;98.56;100953.97;5041160;28;20503;-73
2022/12/11 03:09:19;;;;;;;31.73;17.02;;;;;;;1.22;98.54;100946.00;5051480;28;20500;-73
2022/12/11 03:11:45;;;;;;;29.25;13.57;;;;;;;1.21;98.04;100945.13;5052765;28;20029;-72
2022/12/11 03:14:11;;;;;;;31.83;16.80;;;;;;;1.20;98.30;100950.47;5051554;28;20131;-72
2022/12/11 03:16:40;;;;;;;28.58;12.43;;;;;;;1.19;98.48;100941.69;5051313;28;20358;-72
2022/12/11 03:19:24;;;;;;;;;;;;;;;1.28;98.87;100940.50;5051788;28;20551;-72
2022/12/11 03:21:52;;;;;;;29.23;11.73;;;;;;;1.21;97.67;100944.28;5053782;28;19909;-72
2022/12/11 03:24:40;;;;;;;27.60;12.02;;;;;;;1.23;98.27;100947.75;5051795;28;20017;-73
2022/12/11 03:27:18;;;;;;;26.85;11.65;;;;;;;1.22;97.72;100941.56;5050311;28;20043;-72
2022/12/11 03:30:04;;;;;;;31.35;13.38;;;;;;;1.23;97.59;100934.53;5050105;28;20390;-72
2022/12/11 03:32:37;;;;;;;28.30;12.70;;;;;;;1.22;97.55;100936.28;5053531;28;20029;-72
2022/12/11 03:35:10;;;;;;;29.50;12.95;;;;;;;1.23;97.41;100937.16;5052838;28;20036;-73
2022/12/11 03:37:38;;;;;;;29.38;13.90;;;;;;;1.21;97.26;100931.88;5046645;28;20029;-73
2022/12/11 03:40:09;;;;;;;27.30;12.32;;;;;;;1.19;97.49;100939.03;5052472;28;20036;-72
2022/12/11 03:42:37;;;;;;;27.10;11.57;;;;;;;1.19;97.32;100935.53;5050156;28;20035;-73
2022/12/11 03:45:05;;;;;;;28.65;13.43;;;;;;;1.17;97.49;100932.03;5050221;28;20392;-73
2022/12/11 03:47:32;;;;;;;27.38;13.05;;;;;;;1.18;97.18;100931.13;5052294;28;20028;-72
2022/12/11 03:49:58;;;;;;;25.90;11.68;;;;;;;1.19;97.26;100927.59;5051302;28;20094;-73
2022/12/11 03:52:27;;;;;;;29.58;11.77;;;;;;;1.17;97.70;100921.47;5051375;28;20037;-72
2022/12/11 03:54:57;;;;;;;29.52;13.52;;;;;;;1.16;97.77;100917.97;5051822;28;20032;-72
2022/12/11 03:57:27;;;;;;;27.55;11.85;;;;;;;1.15;97.49;100913.56;5051651;28;20104;-73
2022/12/11 03:59:53;;;;;;;29.38;12.13;;;;;;;1.16;97.76;100907.38;5051888;28;20391;-73
2022/12/11 04:02:18;;;;;;;30.20;13.10;;;;;;;1.14;98.01;100906.56;5051143;28;20024;-73
2022/12/11 04:04:43;;;;;;;28.13;11.52;;;;;;;1.13;97.46;100909.22;5052143;28;20431;-72
2022/12/11 04:07:09;;;;;;;28.67;12.32;;;;;;;1.14;97.92;100910.97;5051968;28;20365;-73
2022/12/11 04:09:34;;;;;;;26.70;11.88;;;;;;;1.14;97.80;100916.25;5051998;28;20056;-72
2022/12/11 04:11:59;;;;;;;26.52;12.10;;;;;;;1.15;97.05;100916.22;5050673;28;20032;-73
2022/12/11 04:17:09;;;;;;;28.73;13.30;;;;;;;1.15;97.47;100918.88;5051305;28;20040;-72
2022/12/11 04:25:05;;;;;;;26.55;11.98;;;;;;;1.13;97.25;100919.81;5051684;28;20116;-73
2022/12/11 04:27:48;;;;;;;27.83;12.60;;;;;;;1.14;96.86;100914.50;5049695;28;20032;-73
2022/12/11 04:30:17;;;;;;;26.55;13.02;;;;;;;1.15;95.79;100912.72;5051341;28;20041;-73
2022/12/11 04:32:42;;;;;;;27.63;13.00;;;;;;;1.16;96.36;100907.38;5050622;28;20388;-72
2022/12/11 04:35:09;;;;;;;27.80;12.85;;;;;;;1.16;96.86;100906.50;5050798;28;20039;-73
2022/12/11 04:37:35;;;;;;;27.20;12.23;;;;;;;1.16;96.41;100909.16;5050698;28;20024;-73
2022/12/11 04:40:01;;;;;;;25.98;11.93;;;;;;;1.18;95.87;100907.31;5050846;28;20086;-73
2022/12/11 04:42:26;;;;;;;27.33;13.35;;;;;;;1.19;96.46;100911.69;5035521;28;20021;-73
2022/12/11 04:44:52;;;;;;;28.42;13.07;;;;;;;1.19;96.13;100901.97;5051091;28;20460;-72
2022/12/11 04:47:17;;;;;;;29.48;12.93;;;;;;;1.18;96.35;100905.53;5051399;28;20507;-72
2022/12/11 04:49:42;;;;;;;27.73;11.25;;;;;;;1.19;96.60;100903.75;5049928;28;20029;-72
2022/12/11 04:52:08;;;;;;;27.63;13.13;;;;;;;1.20;96.22;100905.47;5050353;28;20104;-73
2022/12/11 04:54:33;;;;;;;30.15;11.90;;;;;;;1.18;96.35;100902.88;5050970;28;20477;-73
2022/12/11 04:56:59;;;;;;;27.83;12.18;;;;;;;1.18;96.62;100902.03;5050021;28;20021;-73
2022/12/11 04:59:24;;;;;;;29.90;12.82;;;;;;;1.18;96.48;100904.66;5050777;28;20431;-73
2022/12/11 05:01:49;;;;;;;27.70;12.98;;;;;;;1.17;96.23;100901.16;5051489;28;20522;-73
2022/12/11 05:04:15;;;;;;;30.25;14.55;;;;;;;1.16;96.16;100899.44;5049353;28;20384;-73
2022/12/11 05:06:40;;;;;;;27.60;12.73;;;;;;;1.15;94.48;100896.84;5051081;28;20029;-72
2022/12/11 05:09:10;;;;;;;26.83;11.55;;;;;;;1.15;94.08;100888.88;5050180;28;20482;-73
2022/12/11 05:11:36;;;;;;;26.27;12.55;;;;;;;1.15;93.10;100891.53;5050835;28;20039;-73
2022/12/11 05:14:01;;;;;;;29.33;12.70;;;;;;;1.15;93.77;100892.41;5046788;28;20025;-73
2022/12/11 05:16:27;;;;;;;27.35;12.50;;;;;;;1.14;94.14;100898.63;5049367;28;20021;-73
2022/12/11 05:18:53;;;;;;;27.85;13.07;;;;;;;1.14;94.31;100890.69;5048096;28;20025;-73
2022/12/11 05:21:18;;;;;;;32.75;14.38;;;;;;;1.12;95.45;100892.50;5049695;28;20021;-73
2022/12/11 05:23:43;;;;;;;30.67;13.95;;;;;;;1.14;95.39;100889.78;5050898;28;20083;-73
2022/12/11 05:26:15;;;;;;;29.20;14.00;;;;;;;1.16;95.30;100894.13;5051681;28;20074;-73
2022/12/11 05:28:41;;;;;;;29.05;12.38;;;;;;;1.18;94.99;100886.13;5050696;28;20068;-73
2022/12/11 05:31:12;;;;;;;26.98;11.88;;;;;;;1.17;94.50;100887.94;5050215;28;20025;-73
2022/12/11 05:33:37;;;;;;;31.00;12.75;;;;;;;1.16;94.03;100886.19;5051041;28;20025;-73
2022/12/11 05:36:03;;;;;;;26.75;12.20;;;;;;;1.17;94.57;100884.41;5050123;28;20029;-73
2022/12/11 05:38:29;;;;;;;33.25;13.40;;;;;;;1.16;92.86;100882.69;5051966;28;20407;-73
2022/12/11 05:40:59;;;;;;;27.60;12.57;;;;;;;1.16;93.67;100875.59;5039121;28;20543;-72
2022/12/11 05:43:26;;;;;;;28.98;12.55;;;;;;;1.17;93.28;100881.75;5051641;28;20033;-73
2022/12/11 05:45:51;;;;;;;28.52;13.23;;;;;;;1.18;93.40;100881.69;5047448;28;20387;-73
2022/12/11 05:48:17;;;;;;;26.52;12.27;;;;;;;1.19;93.19;100887.88;5049961;28;20021;-72
2022/12/11 05:50:42;;;;;;;26.63;12.02;;;;;;;1.19;93.45;100890.53;5050604;28;20427;-73
2022/12/11 05:53:07;;;;;;;28.67;12.93;;;;;;;1.19;92.70;100888.72;5050855;28;20051;-72
2022/12/11 05:55:34;;;;;;;27.92;11.45;;;;;;;1.20;92.97;100895.75;5049682;28;20083;-72
2022/12/11 05:57:59;;;;;;;24.98;12.10;;;;;;;1.21;93.66;100896.63;5050650;28;20033;-72
2022/12/11 06:00:24;;;;;;;24.55;11.93;;;;;;;1.21;93.53;100899.25;5048061;28;20096;-72
2022/12/11 06:02:50;;;;;;;33.05;13.48;;;;;;;1.19;93.66;100895.81;5031674;28;20028;-72
2022/12/11 06:05:15;;;;;;;26.25;12.13;;;;;;;1.17;93.98;100892.34;5049601;28;20052;-73
2022/12/11 06:07:40;;;;;;;24.30;11.95;;;;;;;1.18;94.53;100899.38;5051556;28;20035;-72
2022/12/11 06:10:06;;;;;;;26.92;11.82;;;;;;;1.17;94.62;100894.97;5052703;28;20020;-73
2022/12/11 06:12:31;;;;;;;26.05;11.82;;;;;;;1.18;93.67;100891.44;5053712;28;20391;-73
2022/12/11 06:14:57;;;;;;;26.42;11.20;;;;;;;1.18;93.33;100896.72;5051556;28;20025;-72
2022/12/11 06:17:22;;;;;;;29.25;12.40;;;;;;;1.20;93.74;100890.47;5052666;28;20032;-72
2022/12/11 06:19:47;;;;;;;27.33;11.48;;;;;;;1.22;94.12;100893.06;5052701;28;20116;-72
2022/12/11 06:22:13;;;;;;;26.88;11.38;;;;;;;1.24;94.06;100890.38;5053358;28;20020;-72
2022/12/11 06:24:38;;;;;;;26.65;11.63;;;;;;;1.22;94.45;100893.06;5052451;28;20158;-72
2022/12/11 06:27:03;;;;;;;25.92;11.75;;;;;;;1.21;93.95;100891.31;5054044;28;20024;-72
2022/12/11 06:29:29;;;;;;;26.10;11.15;;;;;;;1.20;94.29;100890.47;5051842;28;20049;-73
2022/12/11 06:31:54;;;;;;;28.83;12.48;;;;;;;1.18;94.10;100888.78;5053319;28;20390;-72
2022/12/11 06:34:19;;;;;;;28.63;12.25;;;;;;;1.18;94.20;100886.13;5052072;28;20028;-73
2022/12/11 06:36:44;;;;;;;28.25;12.32;;;;;;;1.20;95.15;100893.13;5035770;28;20120;-72
2022/12/11 06:39:11;;;;;;;26.38;11.40;;;;;;;1.22;93.99;100890.41;5052004;28;20028;-72
2022/12/11 06:41:36;;;;;;;27.42;12.82;;;;;;;1.25;93.86;100886.81;5050970;28;20084;-73
2022/12/11 06:44:01;;;;;;;24.42;10.93;;;;;;;1.25;94.22;100889.47;5052956;28;20029;-72
2022/12/11 06:46:27;;;;;;;26.80;12.50;;;;;;;1.22;94.61;100888.63;5053378;28;20025;-73
2022/12/11 06:48:52;;;;;;;24.88;11.82;;;;;;;1.22;94.46;100877.19;5053435;28;20036;-73
2022/12/11 06:51:20;;;;;;;29.80;12.70;;;;;;;1.23;94.54;100881.56;5053506;28;20033;-73
2022/12/11 06:53:55;;;;;;;25.75;10.95;;;;;;;1.24;94.45;100880.63;5035203;28;20056;-73
2022/12/11 06:56:21;;;;;;;28.17;12.60;;;;;;;1.23;93.56;100878.91;5039066;28;20029;-72
2022/12/11 06:58:47;;;;;;;27.95;12.50;;;;;;;1.23;93.55;100878.91;5052972;28;20028;-72
2022/12/11 07:01:17;;;;;;;26.52;12.27;;;;;;;1.24;93.60;100874.47;5049385;28;20035;-72
2022/12/11 07:03:42;;;;;;;28.10;12.43;;;;;;;1.24;93.59;100877.97;5054054;28;20036;-72
2022/12/11 07:06:08;;;;;;;26.20;10.88;;;;;;;1.22;93.70;100887.78;5035080;28;20037;-73
2022/12/11 07:08:33;;;;;;;24.38;10.32;;;;;;;1.22;93.80;100885.97;5046674;28;20111;-72
2022/12/11 07:11:04;;;;;;;29.05;12.60;;;;;;;1.21;93.56;100892.19;5049533;28;20029;-72
2022/12/11 07:13:29;;;;;;;26.60;11.30;;;;;;;1.22;93.75;100893.06;5053090;28;20021;-72
2022/12/11 07:15:57;;;;;;;29.33;12.93;;;;;;;1.24;93.80;100901.81;5052714;28;20451;-72
2022/12/11 07:18:22;;;;;;;26.98;11.45;;;;;;;1.23;93.75;100897.44;5052330;28;20484;-73
2022/12/11 07:20:48;;;;;;;27.05;11.90;;;;;;;1.25;93.64;100897.41;5051262;28;20137;-72
2022/12/11 07:23:13;;;;;;;27.52;12.70;;;;;;;1.24;93.61;100899.16;5053556;28;20365;-72
2022/12/11 07:25:38;;;;;;;26.52;10.88;;;;;;;1.25;94.04;100902.69;5035883;28;20028;-72
2022/12/11 07:28:03;;;;;;;27.90;12.18;;;;;;;1.26;94.28;100904.41;5052314;28;20470;-73
2022/12/11 07:30:29;;;;;;;29.60;13.65;;;;;;;1.26;94.45;100912.34;5033652;28;20025;-72
2022/12/11 07:32:54;;;;;;;28.70;12.15;;;;;;;1.26;93.91;100910.59;5052164;28;20029;-72
2022/12/11 07:35:20;;;;;;;26.45;13.02;;;;;;;1.28;94.23;100911.38;5051644;28;20025;-73
2022/12/11 07:37:45;;;;;;;26.23;12.27;;;;;;;1.28;93.99;100908.75;5049466;28;20116;-72
2022/12/11 07:40:10;;;;;;;27.13;12.35;;;;;;;1.30;93.99;100911.31;5050348;28;20021;-72
2022/12/11 07:42:36;;;;;;;27.20;12.40;;;;;;;1.29;93.71;100904.28;5051601;28;20033;-73
2022/12/11 07:45:01;;;;;;;27.77;12.13;;;;;;;1.30;93.90;100909.53;5051455;28;20029;-72
2022/12/11 07:47:26;;;;;;;27.80;13.60;;;;;;;1.31;93.45;100902.47;5053638;28;20040;-73
2022/12/11 07:49:52;;;;;;;28.10;12.68;;;;;;;1.31;93.25;100905.13;5052169;28;20040;-72
2022/12/11 07:52:17;;;;;;;28.67;13.35;;;;;;;1.30;93.61;100906.88;5052136;28;20024;-72
2022/12/11 07:54:42;;;;;;;29.50;13.25;;;;;;;1.29;93.69;100909.59;5049920;28;20480;-72
2022/12/11 07:57:08;;;;;;;29.13;12.25;;;;;;;1.28;93.83;100908.75;5033571;28;20041;-73
2022/12/11 07:59:33;;;;;;;30.58;13.50;;;;;;;1.29;93.55;100910.47;5051972;28;20037;-72
2022/12/11 08:01:58;;;;;;;28.73;12.60;;;;;;;1.29;93.43;100915.78;5052425;28;20103;-73
2022/12/11 08:04:24;;;;;;;28.35;13.00;;;;;;;1.27;94.03;100900.84;5051499;28;20029;-72
2022/12/11 08:06:49;;;;;;;27.20;14.05;;;;;;;1.29;93.71;100907.81;5023788;28;20094;-72
2022/12/11 08:09:14;;;;;;;29.73;13.50;;;;;;;1.30;93.72;100906.03;5049583;28;20041;-73
2022/12/11 08:11:39;;;;;;;30.83;14.25;;;;;;;1.31;93.75;100903.34;5049985;28;20045;-72
2022/12/11 08:14:06;;;;;;;29.25;12.57;;;;;;;1.31;93.60;100910.41;5052525;28;20029;-73
2022/12/11 08:16:32;;;;;;;29.00;15.88;;;;;;;1.30;93.83;100909.53;5050895;28;20055;-72
2022/12/11 08:18:57;;;;;;;27.80;13.07;;;;;;;1.31;94.05;100905.97;5052052;28;20060;-73
2022/12/11 08:21:24;;;;;;;30.55;14.60;;;;;;;1.34;93.55;100902.38;5050535;28;20025;-73
2022/12/11 08:23:51;;;;;;;31.95;14.32;;;;;;;1.35;93.34;100901.47;5051819;28;20025;-72
2022/12/11 08:26:20;;;;;;;29.00;13.63;;;;;;;1.34;93.23;100905.88;5049552;28;20013;-73
2022/12/11 08:28:46;;;;;;;27.60;14.82;;;;;;;1.34;93.09;100907.66;5051493;28;20049;-73
2022/12/11 08:31:13;;;;;;;30.30;13.57;;;;;;;1.32;92.68;100915.66;5050109;28;20503;-73
2022/12/11 08:33:40;;;;;;;28.10;13.70;;;;;;;1.32;93.23;100915.66;5050933;28;20036;-73
2022/12/11 08:36:08;;;;;;;29.63;14.20;;;;;;;1.31;93.39;100903.34;5044871;28;20017;-72
2022/12/11 08:38:33;;;;;;;29.90;15.27;;;;;;;1.33;93.61;100912.09;5022386;28;20040;-72
2022/12/11 08:41:10;;;;;;;30.23;15.90;;;;;;;1.35;93.44;100904.97;5049424;28;20476;-72
2022/12/11 08:43:36;;;;;;;29.20;13.88;;;;;;;1.32;92.85;100909.50;5051047;28;20029;-72
2022/12/11 08:46:01;;;;;;;28.60;13.27;;;;;;;1.32;93.21;100905.06;5050244;28;20024;-73
2022/12/11 08:48:27;;;;;;;31.08;14.48;;;;;;;1.33;93.26;100904.16;5051269;28;20021;-72
2022/12/11 08:50:52;;;;;;;30.08;14.25;;;;;;;1.35;93.19;100906.75;5050420;28;20017;-72
2022/12/11 08:53:17;;;;;;;29.92;15.27;;;;;;;1.34;93.06;100900.56;5049490;28;20024;-73
2022/12/11 08:55:42;;;;;;;30.50;14.05;;;;;;;1.38;93.15;100898.72;5048320;28;21076;-72
2022/12/11 08:58:08;;;;;;;29.98;13.35;;;;;;;1.39;92.93;100898.66;5048391;28;20028;-72
2022/12/11 09:00:33;;;;;;;29.38;14.15;;;;;;;1.43;93.19;100903.84;5031606;28;20021;-72
2022/12/11 09:02:58;;;;;;;28.00;14.38;;;;;;;1.43;92.32;100901.19;5046082;28;20032;-72
2022/12/11 09:05:24;;;;;;;30.58;13.60;;;;;;;1.45;92.78;100900.22;5043928;28;20598;-73
2022/12/11 09:07:49;;;;;;;30.38;13.70;;;;;;;1.45;92.41;100899.34;5046836;28;20032;-73
2022/12/11 09:10:15;;;;;;;31.00;14.77;;;;;;;1.44;92.55;100893.19;5047014;28;20013;-73
2022/12/11 09:12:40;;;;;;;31.70;14.00;;;;;;;1.46;92.86;100898.44;5046947;28;20103;-73
2022/12/11 09:15:06;;;;;;;26.75;13.43;;;;;;;1.46;92.71;100890.50;5046308;28;20557;-73
2022/12/11 09:17:33;;;;;;;29.63;13.23;;;;;;;1.47;91.93;100892.22;5044854;28;20074;-73
2022/12/11 09:19:58;;;;;;;30.45;14.07;;;;;;;1.47;92.55;100897.53;5048700;28;20035;-75
2022/12/11 09:22:24;;;;;;;29.10;15.65;;;;;;;1.46;92.49;100901.94;5049902;28;20029;-75
2022/12/11 09:24:49;;;;;;;33.25;15.07;;;;;;;1.46;92.55;100901.09;5049390;28;20113;-75
2022/12/11 09:27:14;;;;;;;33.90;15.50;;;;;;;1.46;92.34;100896.63;5036254;28;20017;-74
2022/12/11 09:29:40;;;;;;;31.10;14.75;;;;;;;1.44;92.22;100894.97;5050965;28;20057;-74
2022/12/11 09:32:05;;;;;;;32.58;14.70;;;;;;;1.44;92.49;100902.94;5052066;28;20032;-74
2022/12/11 09:34:31;;;;;;;27.58;12.95;;;;;;;1.45;92.62;100894.94;5059517;28;20472;-75
2022/12/11 09:36:56;;;;;;;30.60;13.63;;;;;;;1.46;92.12;100895.78;5057619;28;20104;-74
2022/12/11 09:39:21;;;;;;;30.88;13.93;;;;;;;1.45;92.48;100894.94;5061324;28;20074;-74
2022/12/11 09:42:11;;;;;;;32.03;15.60;;;;;;;1.48;92.62;100893.94;5060460;28;20072;-74
2022/12/11 09:44:38;;;;;;;29.20;14.90;;;;;;;1.45;91.96;100888.75;5045152;28;20063;-75
2022/12/11 09:47:20;;;;;;;29.63;15.02;;;;;;;1.46;91.85;100887.84;5057102;28;20061;-73
2022/12/11 09:49:48;;;;;;;33.15;16.48;;;;;;;1.44;92.47;100887.03;5042063;28;20017;-74
2022/12/11 09:52:45;;;;;;;32.35;14.90;;;;;;;1.47;92.51;100886.94;5045317;28;20039;-74
2022/12/11 09:55:19;;;;;;;25.83;12.73;;;;;;;1.43;92.29;100877.34;5060257;28;20585;-74
2022/12/11 09:58:08;;;;;;;30.15;13.90;;;;;;;1.44;92.41;100882.59;5058988;28;20033;-74
2022/12/11 10:00:46;;;;;;;31.88;13.05;;;;;;;1.44;92.78;100884.41;5056372;28;20635;-74
2022/12/11 10:03:20;;;;;;;32.55;13.23;;;;;;;1.46;92.16;100882.53;5056280;28;20021;-75
2022/12/11 10:06:13;;;;;;;31.38;13.60;;;;;;;1.51;92.43;100885.91;5054267;28;20478;-74
2022/12/11 10:09:06;;;;;;;34.55;14.57;;;;;;;1.51;92.38;100885.91;5052000;28;20025;-74
2022/12/11 10:11:47;;;;;;;33.35;15.40;;;;;;;1.50;92.18;100890.31;5057678;28;20025;-74
2022/12/11 10:14:34;;;;;;;28.88;14.15;;;;;;;1.52;92.11;100888.50;5056684;28;20398;-75
2022/12/11 10:17:18;;;;;;;32.35;13.98;;;;;;;1.57;92.19;100883.91;5042484;28;20031;-74
2022/12/11 10:19:44;;;;;;;30.15;13.82;;;;;;;1.56;92.13;100882.16;5059068;28;20009;-73
2022/12/11 10:22:19;;;;;;;31.35;14.77;;;;;;;1.55;91.88;100877.78;5056625;28;20086;-75
2022/12/11 10:24:59;;;;;;;28.35;12.82;;;;;;;1.55;92.03;100882.22;5057942;28;20045;-75
2022/12/11 10:27:32;;;;;;;27.08;12.27;;;;;;;1.55;92.35;100890.16;5059425;28;20536;-75
2022/12/11 10:30:23;;;;;;;28.63;14.07;;;;;;;1.55;91.82;100875.16;5037173;28;20048;-78
2022/12/11 10:33:19;;;;;;;27.80;13.35;;;;;;;1.57;92.24;100877.75;5039397;28;20039;-75
2022/12/11 10:35:51;;;;;;;33.40;14.77;;;;;;;1.55;92.34;100879.56;5052779;28;20048;-77
2022/12/11 10:38:27;;;;;;;31.48;15.25;;;;;;;1.54;92.03;100875.22;5055141;28;20021;-72
2022/12/11 10:41:05;;;;;;;29.02;12.65;;;;;;;1.54;92.22;100876.06;5051925;28;21075;-73
2022/12/11 10:43:44;;;;;;;29.48;15.00;;;;;;;1.56;91.77;100868.91;5052968;28;20071;-73
2022/12/11 10:46:25;;;;;;;30.88;13.70;;;;;;;1.60;91.67;100863.50;5058051;28;20024;-73
2022/12/11 10:48:53;;;;;;;34.70;15.93;;;;;;;1.59;91.76;100870.59;5051091;28;20024;-75
2022/12/11 10:51:21;;;;;;;31.83;14.02;;;;;;;1.62;91.81;100869.63;5053376;28;20046;-74
2022/12/11 10:53:52;;;;;;;27.65;14.02;;;;;;;1.62;90.86;100865.19;5068384;28;20029;-74
2022/12/11 10:56:26;;;;;;;31.90;15.70;;;;;;;1.66;91.50;100856.22;5075274;28;20055;-74
2022/12/11 10:58:51;;;;;;;28.17;13.40;;;;;;;1.67;91.18;100857.94;5074709;28;20077;-74
2022/12/11 11:01:21;;;;;;;31.10;14.43;;;;;;;1.69;90.94;100857.88;5051275;28;20025;-74
2022/12/11 11:03:59;;;;;;;32.80;14.57;;;;;;;1.71;91.13;100859.56;5058575;28;20040;-73
2022/12/11 11:06:26;;;;;;;29.38;13.30;;;;;;;1.73;90.76;100857.72;5061482;28;20025;-73
2022/12/11 11:08:57;;;;;;;30.45;14.10;;;;;;;1.74;90.92;100854.16;5062216;28;20028;-73
2022/12/11 11:11:31;;;;;;;29.85;12.68;;;;;;;1.78;91.02;100854.03;5064602;28;20025;-73
2022/12/11 11:14:06;;;;;;;27.55;12.73;;;;;;;1.82;91.40;100850.38;5062386;28;20036;-73
2022/12/11 11:16:36;;;;;;;34.30;15.38;;;;;;;1.82;90.51;100853.88;5065277;28;20031;-73
2022/12/11 11:19:01;;;;;;;28.60;14.45;;;;;;;1.90;91.32;100848.28;5061075;28;20394;-73
2022/12/11 11:21:28;;;;;;;29.90;15.43;;;;;;;1.92;90.57;100849.09;5060620;28;20081;-73
2022/12/11 11:23:54;;;;;;;29.70;14.32;;;;;;;1.92;89.81;100843.81;5062974;28;20099;-73
2022/12/11 11:26:21;;;;;;;30.98;15.38;;;;;;;1.95;90.84;100845.44;5064949;28;20053;-73
2022/12/11 11:28:51;;;;;;;29.75;14.45;;;;;;;1.96;89.99;100847.19;5070294;28;20029;-74